Mankato, Kansas
Current Conditions -  °F | °C
As of 9:55 PM on Saturday 25 Oct 2014 (Local Time) from KCNK Reporting Station
Clear Clear  
Wind Chill: 62°   Ceiling: Unl
Heat Index: 62°   Visibility: 10mi
Dew Point: 57°   Wind: 6mph
Humidity: 84%   Direction: 90°E
Pressure: 29.96"   Gusts: NA
Location:  39.79°N, 98.21°W
Report Text: KCNK 260255Z AUTO 09005KT 10SM CLR 17/14 A2996 RMK AO2 SLP139 T01670139 55001
Loading
Personal Weather Stations






























Interactive Weather Map
Tropical Storm Tracking
New forecast layout! Learn more

10-Day Weather Forecast

Advertisements
Track Severe Weather on mobile